sensor_id;sensor_type;location;lat;lon;timestamp;pressure;altitude;pressure_sealevel;temperature;humidity
59029;BME280;45919;51.420;5.454;2023-01-23T00:00:07;103319.25;;;2.58;82.45
59029;BME280;45919;51.420;5.454;2023-01-23T00:01:12;103325.06;;;2.56;82.42
59029;BME280;45919;51.420;5.454;2023-01-23T00:02:14;103320.50;;;2.53;82.66
59029;BME280;45919;51.420;5.454;2023-01-23T00:03:16;103320.38;;;2.51;82.70
59029;BME280;45919;51.420;5.454;2023-01-23T00:04:17;103316.88;;;2.51;82.52
59029;BME280;45919;51.420;5.454;2023-01-23T00:05:19;103320.25;;;2.50;82.75
59029;BME280;45919;51.420;5.454;2023-01-23T00:06:20;103321.91;;;2.49;82.61
59029;BME280;45919;51.420;5.454;2023-01-23T00:07:22;103324.50;;;2.49;82.68
59029;BME280;45919;51.420;5.454;2023-01-23T00:08:24;103323.44;;;2.47;82.98
59029;BME280;45919;51.420;5.454;2023-01-23T00:09:25;103318.28;;;2.47;82.65
59029;BME280;45919;51.420;5.454;2023-01-23T00:10:26;103312.25;;;2.47;82.76
59029;BME280;45919;51.420;5.454;2023-01-23T00:11:28;103319.69;;;2.44;82.92
59029;BME280;45919;51.420;5.454;2023-01-23T00:12:30;103317.41;;;2.47;82.11
59029;BME280;45919;51.420;5.454;2023-01-23T00:13:32;103312.09;;;2.45;81.92
59029;BME280;45919;51.420;5.454;2023-01-23T00:14:34;103318.03;;;2.44;82.24
59029;BME280;45919;51.420;5.454;2023-01-23T00:15:37;103311.81;;;2.42;82.34
59029;BME280;45919;51.420;5.454;2023-01-23T00:16:39;103310.16;;;2.43;82.25
59029;BME280;45919;51.420;5.454;2023-01-23T00:17:40;103306.66;;;2.42;81.80
59029;BME280;45919;51.420;5.454;2023-01-23T00:18:42;103313.66;;;2.43;81.77
59029;BME280;45919;51.420;5.454;2023-01-23T00:19:43;103316.22;;;2.43;81.91
59029;BME280;45919;51.420;5.454;2023-01-23T00:20:45;103314.53;;;2.44;82.26
59029;BME280;45919;51.420;5.454;2023-01-23T00:21:46;103316.22;;;2.43;81.89
59029;BME280;45919;51.420;5.454;2023-01-23T00:22:48;103319.69;;;2.44;81.85
59029;BME280;45919;51.420;5.454;2023-01-23T00:23:50;103316.34;;;2.45;81.90
59029;BME280;45919;51.420;5.454;2023-01-23T00:24:52;103311.06;;;2.43;82.10
59029;BME280;45919;51.420;5.454;2023-01-23T00:25:53;103314.53;;;2.44;81.68
59029;BME280;45919;51.420;5.454;2023-01-23T00:26:55;103311.94;;;2.44;82.17
59029;BME280;45919;51.420;5.454;2023-01-23T00:27:56;103315.44;;;2.44;82.14
59029;BME280;45919;51.420;5.454;2023-01-23T00:28:58;103300.75;;;2.43;82.62
59029;BME280;45919;51.420;5.454;2023-01-23T00:29:59;103310.28;;;2.44;82.20
59029;BME280;45919;51.420;5.454;2023-01-23T00:31:02;103309.38;;;2.44;82.66
59029;BME280;45919;51.420;5.454;2023-01-23T00:32:04;103311.94;;;2.44;82.57
59029;BME280;45919;51.420;5.454;2023-01-23T00:33:05;103313.00;;;2.46;82.35
59029;BME280;45919;51.420;5.454;2023-01-23T00:34:09;103317.25;;;2.45;82.04
59029;BME280;45919;51.420;5.454;2023-01-23T00:35:11;103320.59;;;2.44;82.16
59029;BME280;45919;51.420;5.454;2023-01-23T00:36:13;103324.22;;;2.46;82.47
59029;BME280;45919;51.420;5.454;2023-01-23T00:37:15;103326.03;;;2.47;82.22
59029;BME280;45919;51.420;5.454;2023-01-23T00:38:19;103322.56;;;2.47;82.05
59029;BME280;45919;51.420;5.454;2023-01-23T00:39:21;103320.88;;;2.47;82.17
59029;BME280;45919;51.420;5.454;2023-01-23T00:40:22;103324.38;;;2.48;82.07
59029;BME280;45919;51.420;5.454;2023-01-23T00:41:24;103330.44;;;2.48;82.02
59029;BME280;45919;51.420;5.454;2023-01-23T00:42:26;103332.09;;;2.48;82.19
59029;BME280;45919;51.420;5.454;2023-01-23T00:43:28;103334.56;;;2.46;82.51
59029;BME280;45919;51.420;5.454;2023-01-23T00:44:30;103338.94;;;2.47;82.42
59029;BME280;45919;51.420;5.454;2023-01-23T00:45:31;103325.28;;;2.48;82.18
59029;BME280;45919;51.420;5.454;2023-01-23T00:46:33;103336.47;;;2.49;82.56
59029;BME280;45919;51.420;5.454;2023-01-23T00:47:35;103327.88;;;2.48;82.88
59029;BME280;45919;51.420;5.454;2023-01-23T00:48:36;103339.84;;;2.48;83.08
59029;BME280;45919;51.420;5.454;2023-01-23T00:49:38;103343.22;;;2.47;83.10
59029;BME280;45919;51.420;5.454;2023-01-23T00:50:39;103344.22;;;2.49;83.16
59029;BME280;45919;51.420;5.454;2023-01-23T00:51:41;103337.41;;;2.49;82.70
59029;BME280;45919;51.420;5.454;2023-01-23T00:52:42;103335.72;;;2.50;82.62
59029;BME280;45919;51.420;5.454;2023-01-23T00:53:44;103335.88;;;2.51;83.23
59029;BME280;45919;51.420;5.454;2023-01-23T00:54:45;103342.69;;;2.51;83.26
59029;BME280;45919;51.420;5.454;2023-01-23T00:55:47;103345.41;;;2.53;82.76
59029;BME280;45919;51.420;5.454;2023-01-23T00:56:48;103339.50;;;2.54;82.64
59029;BME280;45919;51.420;5.454;2023-01-23T00:57:50;103341.28;;;2.55;82.24
59029;BME280;45919;51.420;5.454;2023-01-23T00:58:51;103337.03;;;2.55;81.97
59029;BME280;45919;51.420;5.454;2023-01-23T00:59:53;103338.72;;;2.55;81.84
59029;BME280;45919;51.420;5.454;2023-01-23T01:00:54;103340.66;;;2.57;81.99
59029;BME280;45919;51.420;5.454;2023-01-23T01:01:56;103333.69;;;2.56;81.96
59029;BME280;45919;51.420;5.454;2023-01-23T01:02:57;103337.97;;;2.56;81.76
59029;BME280;45919;51.420;5.454;2023-01-23T01:03:59;103337.03;;;2.55;81.74
59029;BME280;45919;51.420;5.454;2023-01-23T01:05:00;103327.63;;;2.56;81.59
59029;BME280;45919;51.420;5.454;2023-01-23T01:06:02;103331.25;;;2.58;81.53
59029;BME280;45919;51.420;5.454;2023-01-23T01:07:03;103331.09;;;2.56;82.24
59029;BME280;45919;51.420;5.454;2023-01-23T01:08:05;103336.25;;;2.56;82.16
59029;BME280;45919;51.420;5.454;2023-01-23T01:09:06;103330.47;;;2.59;81.56
59029;BME280;45919;51.420;5.454;2023-01-23T01:10:08;103329.56;;;2.58;81.93
59029;BME280;45919;51.420;5.454;2023-01-23T01:11:09;103321.81;;;2.58;81.91
59029;BME280;45919;51.420;5.454;2023-01-23T01:12:11;103329.56;;;2.58;81.95
59029;BME280;45919;51.420;5.454;2023-01-23T01:13:14;103324.41;;;2.58;82.16
59029;BME280;45919;51.420;5.454;2023-01-23T01:14:19;103323.66;;;2.59;82.16
59029;BME280;45919;51.420;5.454;2023-01-23T01:15:21;103332.28;;;2.60;82.20
59029;BME280;45919;51.420;5.454;2023-01-23T01:16:23;103325.44;;;2.60;82.22
59029;BME280;45919;51.420;5.454;2023-01-23T01:17:24;103328.94;;;2.61;82.18
59029;BME280;45919;51.420;5.454;2023-01-23T01:18:26;103332.56;;;2.63;82.04
59029;BME280;45919;51.420;5.454;2023-01-23T01:19:28;103329.19;;;2.64;82.02
59029;BME280;45919;51.420;5.454;2023-01-23T01:20:29;103328.44;;;2.65;82.09
59029;BME280;45919;51.420;5.454;2023-01-23T01:21:31;103332.69;;;2.65;82.42
59029;BME280;45919;51.420;5.454;2023-01-23T01:22:32;103341.63;;;2.68;82.03
59029;BME280;45919;51.420;5.454;2023-01-23T01:23:34;103329.19;;;2.64;82.46
59029;BME280;45919;51.420;5.454;2023-01-23T01:24:35;103336.94;;;2.64;82.44
59029;BME280;45919;51.420;5.454;2023-01-23T01:25:37;103333.44;;;2.63;82.58
59029;BME280;45919;51.420;5.454;2023-01-23T01:26:39;103335.28;;;2.65;82.47
59029;BME280;45919;51.420;5.454;2023-01-23T01:27:40;103338.78;;;2.65;82.46
59029;BME280;45919;51.420;5.454;2023-01-23T01:28:42;103343.94;;;2.65;82.58
59029;BME280;45919;51.420;5.454;2023-01-23T01:29:43;103340.56;;;2.66;82.51
59029;BME280;45919;51.420;5.454;2023-01-23T01:30:45;103343.41;;;2.69;82.57
59029;BME280;45919;51.420;5.454;2023-01-23T01:31:46;103346.16;;;2.71;82.60
59029;BME280;45919;51.420;5.454;2023-01-23T01:32:48;103336.72;;;2.71;82.52
59029;BME280;45919;51.420;5.454;2023-01-23T01:33:49;103339.31;;;2.71;82.45
59029;BME280;45919;51.420;5.454;2023-01-23T01:34:51;103341.88;;;2.71;82.37
59029;BME280;45919;51.420;5.454;2023-01-23T01:35:52;103340.22;;;2.72;82.42
59029;BME280;45919;51.420;5.454;2023-01-23T01:36:56;103347.03;;;2.71;82.39
59029;BME280;45919;51.420;5.454;2023-01-23T01:37:58;103338.41;;;2.71;82.56
59029;BME280;45919;51.420;5.454;2023-01-23T01:38:59;103339.31;;;2.71;82.64
59029;BME280;45919;51.420;5.454;2023-01-23T01:40:01;103339.31;;;2.71;82.37
59029;BME280;45919;51.420;5.454;2023-01-23T01:41:03;103341.88;;;2.71;82.35
59029;BME280;45919;51.420;5.454;2023-01-23T01:42:04;103347.97;;;2.72;82.46
59029;BME280;45919;51.420;5.454;2023-01-23T01:43:08;103346.28;;;2.72;82.36
59029;BME280;45919;51.420;5.454;2023-01-23T01:44:22;103342.94;;;2.73;82.08
59029;BME280;45919;51.420;5.454;2023-01-23T01:46:44;103350.66;;;2.73;82.79
59029;BME280;45919;51.420;5.454;2023-01-23T01:47:46;103343.72;;;2.72;82.41
59029;BME280;45919;51.420;5.454;2023-01-23T01:50:04;103351.44;;;2.72;82.36
59029;BME280;45919;51.420;5.454;2023-01-23T01:51:08;103354.03;;;2.72;82.05
59029;BME280;45919;51.420;5.454;2023-01-23T01:52:12;103354.03;;;2.72;82.03
59029;BME280;45919;51.420;5.454;2023-01-23T01:53:14;103355.69;;;2.72;81.87
59029;BME280;45919;51.420;5.454;2023-01-23T01:55:28;103351.59;;;2.74;82.17
59029;BME280;45919;51.420;5.454;2023-01-23T01:56:31;103361.00;;;2.73;82.01
59029;BME280;45919;51.420;5.454;2023-01-23T01:57:35;103351.44;;;2.72;82.06
59029;BME280;45919;51.420;5.454;2023-01-23T01:58:39;103351.44;;;2.72;81.70
59029;BME280;45919;51.420;5.454;2023-01-23T01:59:43;103358.28;;;2.72;81.69
59029;BME280;45919;51.420;5.454;2023-01-23T02:00:46;103350.53;;;2.72;81.88
59029;BME280;45919;51.420;5.454;2023-01-23T02:01:49;103354.78;;;2.71;82.06
59029;BME280;45919;51.420;5.454;2023-01-23T02:02:58;103358.16;;;2.70;82.19
59029;BME280;45919;51.420;5.454;2023-01-23T02:04:01;103358.91;;;2.69;82.14
59029;BME280;45919;51.420;5.454;2023-01-23T02:05:07;103358.03;;;2.69;82.61
59029;BME280;45919;51.420;5.454;2023-01-23T02:06:09;103352.06;;;2.70;81.89
59029;BME280;45919;51.420;5.454;2023-01-23T02:07:13;103358.78;;;2.68;82.17
59029;BME280;45919;51.420;5.454;2023-01-23T02:08:27;103353.59;;;2.68;82.23
59029;BME280;45919;51.420;5.454;2023-01-23T02:09:31;103352.84;;;2.69;82.37
59029;BME280;45919;51.420;5.454;2023-01-23T02:10:34;103345.13;;;2.69;82.63
59029;BME280;45919;51.420;5.454;2023-01-23T02:11:36;103349.50;;;2.70;82.58
59029;BME280;45919;51.420;5.454;2023-01-23T02:12:37;103347.69;;;2.69;82.88
59029;BME280;45919;51.420;5.454;2023-01-23T02:13:40;103349.50;;;2.70;82.68
59029;BME280;45919;51.420;5.454;2023-01-23T02:14:43;103352.22;;;2.71;82.65
59029;BME280;45919;51.420;5.454;2023-01-23T02:15:44;103347.03;;;2.71;82.70
59029;BME280;45919;51.420;5.454;2023-01-23T02:16:46;103346.16;;;2.71;82.40
59029;BME280;45919;51.420;5.454;2023-01-23T02:17:51;103353.91;;;2.71;82.65
59029;BME280;45919;51.420;5.454;2023-01-23T02:18:57;103352.06;;;2.70;82.71
59029;BME280;45919;51.420;5.454;2023-01-23T02:21:03;103351.44;;;2.72;82.39
59029;BME280;45919;51.420;5.454;2023-01-23T02:22:21;103347.97;;;2.72;82.75
59029;BME280;45919;51.420;5.454;2023-01-23T02:24:32;103352.34;;;2.73;82.80
59029;BME280;45919;51.420;5.454;2023-01-23T02:26:41;103343.72;;;2.72;82.97
59029;BME280;45919;51.420;5.454;2023-01-23T02:27:43;103344.75;;;2.74;82.56
59029;BME280;45919;51.420;5.454;2023-01-23T02:28:46;103343.84;;;2.74;82.54
59029;BME280;45919;51.420;5.454;2023-01-23T02:29:47;103344.75;;;2.74;82.69
59029;BME280;45919;51.420;5.454;2023-01-23T02:30:52;103341.25;;;2.74;82.64
59029;BME280;45919;51.420;5.454;2023-01-23T02:31:54;103345.63;;;2.75;82.59
59029;BME280;45919;51.420;5.454;2023-01-23T02:34:17;103341.13;;;2.72;82.91
59029;BME280;45919;51.420;5.454;2023-01-23T02:35:24;103341.88;;;2.71;82.93
59029;BME280;45919;51.420;5.454;2023-01-23T02:36:29;103341.00;;;2.71;82.93
59029;BME280;45919;51.420;5.454;2023-01-23T02:37:31;103343.59;;;2.71;82.88
59029;BME280;45919;51.420;5.454;2023-01-23T02:38:36;103343.59;;;2.71;83.18
59029;BME280;45919;51.420;5.454;2023-01-23T02:39:37;103343.41;;;2.69;83.31
59029;BME280;45919;51.420;5.454;2023-01-23T02:40:40;103342.53;;;2.69;83.21
59029;BME280;45919;51.420;5.454;2023-01-23T02:41:44;103341.50;;;2.67;83.31
59029;BME280;45919;51.420;5.454;2023-01-23T02:42:46;103338.91;;;2.67;83.27
59029;BME280;45919;51.420;5.454;2023-01-23T02:43:49;103343.28;;;2.68;83.11
59029;BME280;45919;51.420;5.454;2023-01-23T02:44:51;103340.84;;;2.69;83.17
59029;BME280;45919;51.420;5.454;2023-01-23T02:45:54;103339.94;;;2.69;83.17
59029;BME280;45919;51.420;5.454;2023-01-23T02:46:56;103340.09;;;2.70;83.05
59029;BME280;45919;51.420;5.454;2023-01-23T02:47:58;103334.00;;;2.70;83.09
59029;BME280;45919;51.420;5.454;2023-01-23T02:49:01;103332.34;;;2.70;83.04
59029;BME280;45919;51.420;5.454;2023-01-23T02:50:03;103337.63;;;2.72;83.08
59029;BME280;45919;51.420;5.454;2023-01-23T02:51:05;103335.06;;;2.72;83.15
59029;BME280;45919;51.420;5.454;2023-01-23T02:52:06;103333.38;;;2.72;83.32
59029;BME280;45919;51.420;5.454;2023-01-23T02:53:08;103337.75;;;2.73;83.01
59029;BME280;45919;51.420;5.454;2023-01-23T02:54:09;103334.44;;;2.74;82.89
59029;BME280;45919;51.420;5.454;2023-01-23T02:55:11;103337.91;;;2.75;82.98
59029;BME280;45919;51.420;5.454;2023-01-23T02:56:13;103340.59;;;2.77;82.86
59029;BME280;45919;51.420;5.454;2023-01-23T02:57:14;103331.19;;;2.77;82.64
59029;BME280;45919;51.420;5.454;2023-01-23T02:58:15;103333.03;;;2.78;82.76
59029;BME280;45919;51.420;5.454;2023-01-23T02:59:36;103334.81;;;2.79;83.06
59029;BME280;45919;51.420;5.454;2023-01-23T03:00:56;103334.81;;;2.79;83.20
59029;BME280;45919;51.420;5.454;2023-01-23T03:01:57;103333.28;;;2.81;83.07
59029;BME280;45919;51.420;5.454;2023-01-23T03:02:59;103339.38;;;2.82;83.10
59029;BME280;45919;51.420;5.454;2023-01-23T03:04:01;103341.16;;;2.83;82.75
59029;BME280;45919;51.420;5.454;2023-01-23T03:05:04;103339.50;;;2.83;82.99
59029;BME280;45919;51.420;5.454;2023-01-23T03:06:06;103338.84;;;2.86;82.92
59029;BME280;45919;51.420;5.454;2023-01-23T03:07:08;103343.25;;;2.87;82.36
59029;BME280;45919;51.420;5.454;2023-01-23T03:08:09;103340.53;;;2.85;82.79
59029;BME280;45919;51.420;5.454;2023-01-23T03:09:12;103334.47;;;2.85;82.57
59029;BME280;45919;51.420;5.454;2023-01-23T03:10:14;103335.38;;;2.85;82.71
59029;BME280;45919;51.420;5.454;2023-01-23T03:11:16;103337.03;;;2.85;82.60
59029;BME280;45919;51.420;5.454;2023-01-23T03:12:18;103331.88;;;2.85;82.46
59029;BME280;45919;51.420;5.454;2023-01-23T03:13:20;103337.03;;;2.85;82.48
59029;BME280;45919;51.420;5.454;2023-01-23T03:14:22;103341.16;;;2.83;82.53
59029;BME280;45919;51.420;5.454;2023-01-23T03:15:24;103336.00;;;2.83;82.71
59029;BME280;45919;51.420;5.454;2023-01-23T03:16:27;103346.31;;;2.83;82.61
59029;BME280;45919;51.420;5.454;2023-01-23T03:17:29;103338.56;;;2.83;82.64
59029;BME280;45919;51.420;5.454;2023-01-23T03:18:30;103338.56;;;2.83;82.65
59029;BME280;45919;51.420;5.454;2023-01-23T03:19:38;103350.56;;;2.82;82.74
59029;BME280;45919;51.420;5.454;2023-01-23T03:20:39;103359.22;;;2.83;82.66
59029;BME280;45919;51.420;5.454;2023-01-23T03:21:41;103345.53;;;2.84;82.42
59029;BME280;45919;51.420;5.454;2023-01-23T03:22:43;103345.53;;;2.84;82.52
59029;BME280;45919;51.420;5.454;2023-01-23T03:23:44;103343.88;;;2.84;82.40
59029;BME280;45919;51.420;5.454;2023-01-23T03:24:48;103345.53;;;2.84;82.62
59029;BME280;45919;51.420;5.454;2023-01-23T03:25:49;103345.53;;;2.84;82.62
59029;BME280;45919;51.420;5.454;2023-01-23T03:26:58;103342.97;;;2.84;82.74
59029;BME280;45919;51.420;5.454;2023-01-23T03:28:00;103347.25;;;2.83;82.75
59029;BME280;45919;51.420;5.454;2023-01-23T03:29:01;103343.88;;;2.84;82.86
59029;BME280;45919;51.420;5.454;2023-01-23T03:30:21;103344.78;;;2.85;82.47
59029;BME280;45919;51.420;5.454;2023-01-23T03:31:25;103349.94;;;2.85;82.52
59029;BME280;45919;51.420;5.454;2023-01-23T03:32:27;103340.53;;;2.85;82.59
59029;BME280;45919;51.420;5.454;2023-01-23T03:33:29;103344.78;;;2.85;82.74
59029;BME280;45919;51.420;5.454;2023-01-23T03:34:31;103344.78;;;2.85;82.72
59029;BME280;45919;51.420;5.454;2023-01-23T03:35:32;103346.44;;;2.84;83.04
59029;BME280;45919;51.420;5.454;2023-01-23T03:36:34;103346.44;;;2.84;82.77
59029;BME280;45919;51.420;5.454;2023-01-23T03:37:37;103355.13;;;2.85;82.94
59029;BME280;45919;51.420;5.454;2023-01-23T03:38:39;103339.63;;;2.85;82.94
59029;BME280;45919;51.420;5.454;2023-01-23T03:40:00;103344.78;;;2.85;82.96
59029;BME280;45919;51.420;5.454;2023-01-23T03:41:20;103343.88;;;2.84;83.11
59029;BME280;45919;51.420;5.454;2023-01-23T03:42:27;103342.19;;;2.85;82.78
59029;BME280;45919;51.420;5.454;2023-01-23T03:43:30;103351.63;;;2.84;82.81
59029;BME280;45919;51.420;5.454;2023-01-23T03:44:32;103345.69;;;2.85;82.74
59029;BME280;45919;51.420;5.454;2023-01-23T03:45:33;103348.41;;;2.87;82.72
59029;BME280;45919;51.420;5.454;2023-01-23T03:46:35;103354.31;;;2.86;82.44
59029;BME280;45919;51.420;5.454;2023-01-23T03:47:36;103356.78;;;2.84;83.05
59029;BME280;45919;51.420;5.454;2023-01-23T03:48:38;103345.69;;;2.85;82.50
59029;BME280;45919;51.420;5.454;2023-01-23T03:49:39;103348.28;;;2.85;82.54
59029;BME280;45919;51.420;5.454;2023-01-23T03:50:41;103359.50;;;2.86;82.69
59029;BME280;45919;51.420;5.454;2023-01-23T03:51:43;103345.81;;;2.87;82.61
59029;BME280;45919;51.420;5.454;2023-01-23T03:52:44;103346.72;;;2.87;82.73
59029;BME280;45919;51.420;5.454;2023-01-23T03:53:46;103342.47;;;2.88;82.84
59029;BME280;45919;51.420;5.454;2023-01-23T03:54:47;103343.25;;;2.87;82.81
59029;BME280;45919;51.420;5.454;2023-01-23T03:55:49;103345.97;;;2.89;82.35
59029;BME280;45919;51.420;5.454;2023-01-23T03:56:50;103358.88;;;2.89;82.39
59029;BME280;45919;51.420;5.454;2023-01-23T03:57:52;103348.66;;;2.90;82.38
59029;BME280;45919;51.420;5.454;2023-01-23T03:58:53;103349.59;;;2.91;82.17
59029;BME280;45919;51.420;5.454;2023-01-23T03:59:55;103346.22;;;2.92;82.47
59029;BME280;45919;51.420;5.454;2023-01-23T04:00:56;103349.72;;;2.92;82.55
59029;BME280;45919;51.420;5.454;2023-01-23T04:01:57;103348.81;;;2.92;82.34
59029;BME280;45919;51.420;5.454;2023-01-23T04:03:00;103339.38;;;2.92;82.34
59029;BME280;45919;51.420;5.454;2023-01-23T04:04:02;103347.13;;;2.92;82.49
59029;BME280;45919;51.420;5.454;2023-01-23T04:05:04;103355.63;;;2.91;82.66
59029;BME280;45919;51.420;5.454;2023-01-23T04:06:05;103356.41;;;2.90;82.48
59029;BME280;45919;51.420;5.454;2023-01-23T04:07:07;103362.38;;;2.89;82.94
59029;BME280;45919;51.420;5.454;2023-01-23T04:08:09;103369.19;;;2.89;82.90
59029;BME280;45919;51.420;5.454;2023-01-23T04:09:10;103354.63;;;2.89;82.80
59029;BME280;45919;51.420;5.454;2023-01-23T04:10:13;103355.38;;;2.88;82.90
59029;BME280;45919;51.420;5.454;2023-01-23T04:11:15;103360.53;;;2.88;83.01
59029;BME280;45919;51.420;5.454;2023-01-23T04:12:16;103351.63;;;2.84;83.51
59029;BME280;45919;51.420;5.454;2023-01-23T04:13:18;103357.56;;;2.83;83.34
59029;BME280;45919;51.420;5.454;2023-01-23T04:14:20;103344.66;;;2.83;83.44
59029;BME280;45919;51.420;5.454;2023-01-23T04:15:21;103348.91;;;2.83;83.43
59029;BME280;45919;51.420;5.454;2023-01-23T04:16:23;103356.66;;;2.83;83.55
59029;BME280;45919;51.420;5.454;2023-01-23T04:17:25;103349.03;;;2.84;83.28
59029;BME280;45919;51.420;5.454;2023-01-23T04:18:26;103345.69;;;2.85;82.98
59029;BME280;45919;51.420;5.454;2023-01-23T04:19:28;103351.00;;;2.87;83.00
59029;BME280;45919;51.420;5.454;2023-01-23T04:20:29;103351.00;;;2.87;82.59
59029;BME280;45919;51.420;5.454;2023-01-23T04:21:31;103358.75;;;2.87;82.65
59029;BME280;45919;51.420;5.454;2023-01-23T04:22:32;103355.25;;;2.86;82.96
59029;BME280;45919;51.420;5.454;2023-01-23T04:23:34;103357.81;;;2.86;82.69
59029;BME280;45919;51.420;5.454;2023-01-23T04:24:36;103352.66;;;2.86;82.69
59029;BME280;45919;51.420;5.454;2023-01-23T04:25:37;103348.41;;;2.87;82.75
59029;BME280;45919;51.420;5.454;2023-01-23T04:26:39;103348.41;;;2.87;82.80
59029;BME280;45919;51.420;5.454;2023-01-23T04:27:40;103353.69;;;2.89;82.72
59029;BME280;45919;51.420;5.454;2023-01-23T04:28:42;103350.34;;;2.90;82.55
59029;BME280;45919;51.420;5.454;2023-01-23T04:29:43;103352.16;;;2.91;82.34
59029;BME280;45919;51.420;5.454;2023-01-23T04:30:48;103355.78;;;2.93;82.77
59029;BME280;45919;51.420;5.454;2023-01-23T04:31:50;103359.38;;;2.95;82.76
59029;BME280;45919;51.420;5.454;2023-01-23T04:32:52;103352.56;;;2.95;82.53
59029;BME280;45919;51.420;5.454;2023-01-23T04:33:53;103356.97;;;2.96;82.65
59029;BME280;45919;51.420;5.454;2023-01-23T04:34:55;103354.38;;;2.96;82.84
59029;BME280;45919;51.420;5.454;2023-01-23T04:35:57;103353.59;;;2.97;82.72
59029;BME280;45919;51.420;5.454;2023-01-23T04:36:59;103353.59;;;2.97;82.47
59029;BME280;45919;51.420;5.454;2023-01-23T04:38:01;103354.50;;;2.98;82.74
59029;BME280;45919;51.420;5.454;2023-01-23T04:39:02;103357.22;;;2.99;82.71
59029;BME280;45919;51.420;5.454;2023-01-23T04:40:04;103358.13;;;3.00;82.76
59029;BME280;45919;51.420;5.454;2023-01-23T04:41:06;103356.44;;;3.01;82.65
59029;BME280;45919;51.420;5.454;2023-01-23T04:42:07;103354.78;;;3.01;82.56
59029;BME280;45919;51.420;5.454;2023-01-23T04:43:09;103361.72;;;3.02;82.45
59029;BME280;45919;51.420;5.454;2023-01-23T04:44:11;103357.47;;;3.03;82.43
59029;BME280;45919;51.420;5.454;2023-01-23T04:45:22;103360.97;;;3.03;82.48
59029;BME280;45919;51.420;5.454;2023-01-23T04:46:23;103354.91;;;3.03;82.50
59029;BME280;45919;51.420;5.454;2023-01-23T04:47:25;103365.09;;;3.01;82.98
59029;BME280;45919;51.420;5.454;2023-01-23T04:48:26;103359.03;;;3.01;82.87
59029;BME280;45919;51.420;5.454;2023-01-23T04:49:28;103359.81;;;2.99;82.88
59029;BME280;45919;51.420;5.454;2023-01-23T04:50:29;103363.31;;;3.00;82.72
59029;BME280;45919;51.420;5.454;2023-01-23T04:51:30;103364.97;;;2.99;82.82
59029;BME280;45919;51.420;5.454;2023-01-23T04:52:32;103366.78;;;3.01;82.94
59029;BME280;45919;51.420;5.454;2023-01-23T04:53:33;103366.63;;;2.99;82.97
59029;BME280;45919;51.420;5.454;2023-01-23T04:54:35;103365.88;;;3.00;82.81
59029;BME280;45919;51.420;5.454;2023-01-23T04:55:37;103370.28;;;3.01;82.90
59029;BME280;45919;51.420;5.454;2023-01-23T04:56:38;103363.44;;;3.02;82.87
59029;BME280;45919;51.420;5.454;2023-01-23T04:57:40;103369.34;;;3.01;83.04
59029;BME280;45919;51.420;5.454;2023-01-23T04:58:41;103371.94;;;3.01;82.98
59029;BME280;45919;51.420;5.454;2023-01-23T04:59:43;103365.88;;;3.00;82.82
59029;BME280;45919;51.420;5.454;2023-01-23T05:00:44;103370.28;;;3.01;82.82
59029;BME280;45919;51.420;5.454;2023-01-23T05:01:46;103372.84;;;3.01;82.98
59029;BME280;45919;51.420;5.454;2023-01-23T05:02:48;103371.19;;;3.02;83.08
59029;BME280;45919;51.420;5.454;2023-01-23T05:03:50;103373.75;;;3.02;83.23
59029;BME280;45919;51.420;5.454;2023-01-23T05:04:52;103382.41;;;3.02;83.25
59029;BME280;45919;51.420;5.454;2023-01-23T05:05:53;103367.81;;;3.03;83.31
59029;BME280;45919;51.420;5.454;2023-01-23T05:06:55;103368.47;;;3.00;83.45
59029;BME280;45919;51.420;5.454;2023-01-23T05:07:56;103371.06;;;3.00;83.28
59029;BME280;45919;51.420;5.454;2023-01-23T05:08:58;103370.28;;;3.01;83.19
59029;BME280;45919;51.420;5.454;2023-01-23T05:09:59;103368.59;;;3.02;82.86
59029;BME280;45919;51.420;5.454;2023-01-23T05:11:01;103370.41;;;3.03;82.70
59029;BME280;45919;51.420;5.454;2023-01-23T05:12:02;103372.97;;;3.03;82.68
59029;BME280;45919;51.420;5.454;2023-01-23T05:13:04;103380.59;;;3.01;82.85
59029;BME280;45919;51.420;5.454;2023-01-23T05:14:06;103383.19;;;3.01;82.80
59029;BME280;45919;51.420;5.454;2023-01-23T05:15:07;103372.84;;;3.01;82.85
59029;BME280;45919;51.420;5.454;2023-01-23T05:16:09;103382.25;;;3.01;83.00
59029;BME280;45919;51.420;5.454;2023-01-23T05:17:11;103384.84;;;3.01;82.81
59029;BME280;45919;51.420;5.454;2023-01-23T05:18:12;103383.97;;;3.00;82.69
59029;BME280;45919;51.420;5.454;2023-01-23T05:19:14;103383.06;;;2.99;83.00
59029;BME280;45919;51.420;5.454;2023-01-23T05:20:16;103379.56;;;2.99;82.89
59029;BME280;45919;51.420;5.454;2023-01-23T05:21:17;103378.63;;;2.98;82.78
59029;BME280;45919;51.420;5.454;2023-01-23T05:22:19;103381.22;;;2.98;82.81
59029;BME280;45919;51.420;5.454;2023-01-23T05:23:20;103381.38;;;3.00;82.64
59029;BME280;45919;51.420;5.454;2023-01-23T05:24:22;103378.81;;;3.00;82.88
59029;BME280;45919;51.420;5.454;2023-01-23T05:25:25;103378.81;;;3.00;83.15
59029;BME280;45919;51.420;5.454;2023-01-23T05:26:26;103392.72;;;3.02;83.08
59029;BME280;45919;51.420;5.454;2023-01-23T05:27:28;103390.16;;;3.02;82.94
59029;BME280;45919;51.420;5.454;2023-01-23T05:28:29;103391.72;;;3.00;82.98
59029;BME280;45919;51.420;5.454;2023-01-23T05:29:31;103388.34;;;3.01;83.24
59029;BME280;45919;51.420;5.454;2023-01-23T05:30:32;103386.53;;;3.00;83.29
59029;BME280;45919;51.420;5.454;2023-01-23T05:31:34;103388.97;;;2.98;83.05
59029;BME280;45919;51.420;5.454;2023-01-23T05:32:35;103380.22;;;2.96;83.41
59029;BME280;45919;51.420;5.454;2023-01-23T05:33:37;103303.72;;;2.48;83.16
59029;BME280;45919;51.420;5.454;2023-01-23T05:34:40;103391.28;;;2.95;83.24
59029;BME280;45919;51.420;5.454;2023-01-23T05:35:42;103392.97;;;2.95;82.99
59029;BME280;45919;51.420;5.454;2023-01-23T05:36:43;103387.03;;;2.96;83.12
59029;BME280;45919;51.420;5.454;2023-01-23T05:37:48;103390.66;;;2.98;82.93
59029;BME280;45919;51.420;5.454;2023-01-23T05:38:50;103392.47;;;2.99;83.10